Skip Navigation LinksHome page > Weather > Current weather Skip Navigation Links

Current Weather

Philadelphia Intl, Philadelphia

For information only: do not use for flight planning or navigation.
Latest weather
Observation time Sunday, September 20, 2020 9:54 AM EDT
Local time Sunday, September 20, 2020 11:09 AM EDT
Flight conditions Visual Meteorological Conditions
Winds
Wind direction Northeast (40°)
Wind speed 14 mph
Visibility 10 mi.
Sky condition
Ceiling unlimited
Cloud layer few clouds 15,000 ft.
Temperature 57°F
Dewpoint 38°F
Altimeter 30.50 in.Hg
Derived measurements
Relative humidity 49%
Density altitude -634 ft.
Sea-level pressure 30.50 in.Hg
Remarks
Corrected report.
System requires maintenance.
Automated weather observing station with precipitation discriminator.
METAR KPHL 201354Z COR 04012KT 10SM FEW150 14/03 A3050 RMK AO2 SLP328 T01390033 $

Settings

Location code

InnerDrive.Weather 4.0.6770.0 Release CLR 4.0.30319.42000
Copyright ©2018 Inner Drive Technology. All rights reserved. Portions Copyright ©1986-2018 David Braverman.

Find weather

Site navigation


Skip Navigation Links

Place info

Page info

PayPal - The safer, easier way to pay online!

Return home.

Copyright ©2020 Inner Drive Technology. Purveyors of fine, hand-crafted computer software. Page printed 2020-09-20T15:09:14 UTC.